CCA168Z ZULS-VQPR
Flight info
| Callsign | CCA168Z |
|---|---|
| Flight time | N/A |
| Altitude | 32100 |
| Route | LXA B345 NONIM/N0480F320 B345 TUMLI/N0481F310 G348 PRO |
| Aircraft | A320/M-SDE3FGHIRWY/LB1 |
Departure
| Time | 2026-05-06 08:32 |
|---|---|
| Airport | Lhasa Gonggar International Airport (ZULS) |
Arrival
| Time | N/A |
|---|---|
| Airport | Paro International Airport (VQPR) |
| Time | Latitude | Longitude | Altitude | Speed | Heading |
|---|---|---|---|---|---|
| 2026-05-06 08:01 | 29.29421 | 90.89856 | 11471 ft | 0 kts | 179° |
| 2026-05-06 08:22 | 29.29422 | 90.89856 | 11475 ft | 0 kts | 179° |
| 2026-05-06 08:22 | 29.29434 | 90.89856 | 11464 ft | 3 kts | 179° |
| 2026-05-06 08:22 | 29.29454 | 90.89856 | 11451 ft | 3 kts | 178° |
| 2026-05-06 08:23 | 29.29474 | 90.89855 | 11458 ft | 3 kts | 176° |
| 2026-05-06 08:23 | 29.29494 | 90.89853 | 11458 ft | 3 kts | 171° |
| 2026-05-06 08:23 | 29.29514 | 90.89849 | 11461 ft | 3 kts | 162° |
| 2026-05-06 08:23 | 29.29528 | 90.89843 | 11457 ft | 1 kts | 153° |
| 2026-05-06 08:25 | 29.29524 | 90.89870 | 11459 ft | 10 kts | 92° |
| 2026-05-06 08:26 | 29.29531 | 90.89976 | 11467 ft | 14 kts | 63° |
| 2026-05-06 08:26 | 29.29611 | 90.90028 | 11459 ft | 13 kts | 47° |
| 2026-05-06 08:26 | 29.29625 | 90.90131 | 11467 ft | 14 kts | 91° |
| 2026-05-06 08:26 | 29.29624 | 90.90239 | 11463 ft | 14 kts | 88° |
| 2026-05-06 08:27 | 29.29627 | 90.90349 | 11461 ft | 15 kts | 88° |
| 2026-05-06 08:27 | 29.29631 | 90.90519 | 11465 ft | 27 kts | 89° |
| 2026-05-06 08:27 | 29.29635 | 90.90727 | 11454 ft | 26 kts | 89° |
| 2026-05-06 08:27 | 29.29638 | 90.90937 | 11464 ft | 26 kts | 89° |
| 2026-05-06 08:28 | 29.29640 | 90.91146 | 11464 ft | 26 kts | 89° |
| 2026-05-06 08:28 | 29.29645 | 90.91350 | 11465 ft | 25 kts | 89° |
| 2026-05-06 08:28 | 29.29647 | 90.91550 | 11465 ft | 25 kts | 89° |
| 2026-05-06 08:28 | 29.29648 | 90.91684 | 11440 ft | 25 kts | 89° |
| 2026-05-06 08:29 | 29.29652 | 90.91876 | 11429 ft | 23 kts | 89° |
| 2026-05-06 08:29 | 29.29655 | 90.92060 | 11439 ft | 23 kts | 89° |
| 2026-05-06 08:29 | 29.29659 | 90.92351 | 11438 ft | 25 kts | 89° |
| 2026-05-06 08:29 | 29.29662 | 90.92481 | 11431 ft | 25 kts | 89° |
| 2026-05-06 08:30 | 29.29665 | 90.92675 | 11430 ft | 24 kts | 89° |
| 2026-05-06 08:30 | 29.29667 | 90.92867 | 11435 ft | 24 kts | 89° |
| 2026-05-06 08:30 | 29.29669 | 90.93057 | 11435 ft | 24 kts | 89° |
| 2026-05-06 08:30 | 29.29672 | 90.93232 | 11435 ft | 13 kts | 88° |
| 2026-05-06 08:31 | 29.29723 | 90.93268 | 11432 ft | 10 kts | 1° |
| 2026-05-06 08:31 | 29.29806 | 90.93248 | 11434 ft | 19 kts | 326° |
| 2026-05-06 08:31 | 29.29836 | 90.93081 | 11428 ft | 23 kts | 268° |
| 2026-05-06 08:31 | 29.29830 | 90.92741 | 11437 ft | 71 kts | 269° |
| 2026-05-06 08:32 | 29.29818 | 90.91959 | 11441 ft | 123 kts | 269° |
| 2026-05-06 08:32 | 29.29794 | 90.90801 | 11461 ft | 166 kts | 267° |
| 2026-05-06 08:32 | 29.29755 | 90.89431 | 11988 ft | 173 kts | 264° |
| 2026-05-06 08:32 | 29.29735 | 90.88052 | 12873 ft | 177 kts | 266° |
| 2026-05-06 08:33 | 29.29717 | 90.86558 | 13255 ft | 198 kts | 268° |
| 2026-05-06 08:33 | 29.29681 | 90.84898 | 13468 ft | 219 kts | 261° |
| 2026-05-06 08:33 | 29.29257 | 90.83165 | 13736 ft | 231 kts | 244° |
| 2026-05-06 08:33 | 29.28765 | 90.81397 | 14375 ft | 237 kts | 259° |
| 2026-05-06 08:34 | 29.28822 | 90.79497 | 15057 ft | 244 kts | 279° |
| 2026-05-06 08:34 | 29.30830 | 90.76272 | 16156 ft | 267 kts | 326° |
| 2026-05-06 08:34 | 29.32595 | 90.75554 | 16608 ft | 276 kts | 348° |
| 2026-05-06 08:35 | 29.34533 | 90.75713 | 17125 ft | 288 kts | 14° |
| 2026-05-06 08:35 | 29.36292 | 90.76853 | 17575 ft | 297 kts | 45° |
| 2026-05-06 08:35 | 29.37423 | 90.78806 | 18005 ft | 298 kts | 73° |
| 2026-05-06 08:35 | 29.37713 | 90.81118 | 18410 ft | 292 kts | 98° |
| 2026-05-06 08:36 | 29.37365 | 90.83403 | 18792 ft | 294 kts | 105° |
| 2026-05-06 08:36 | 29.37055 | 90.85751 | 19096 ft | 305 kts | 98° |
| 2026-05-06 08:36 | 29.36791 | 90.88218 | 19270 ft | 317 kts | 107° |
| 2026-05-06 08:36 | 29.36098 | 90.90578 | 19658 ft | 317 kts | 121° |
| 2026-05-06 08:37 | 29.34993 | 90.92750 | 20069 ft | 315 kts | 133° |
| 2026-05-06 08:37 | 29.33536 | 90.94602 | 20511 ft | 312 kts | 143° |
| 2026-05-06 08:37 | 29.31800 | 90.96057 | 20968 ft | 308 kts | 156° |
| 2026-05-06 08:37 | 29.29855 | 90.97057 | 21421 ft | 306 kts | 168° |
| 2026-05-06 08:38 | 29.27787 | 90.97569 | 21882 ft | 303 kts | 180° |
| 2026-05-06 08:38 | 29.25692 | 90.97589 | 22405 ft | 300 kts | 190° |
| 2026-05-06 08:38 | 29.23653 | 90.97136 | 22894 ft | 298 kts | 202° |
| 2026-05-06 08:38 | 29.21750 | 90.96226 | 23390 ft | 296 kts | 213° |
| 2026-05-06 08:39 | 29.20047 | 90.94919 | 23768 ft | 295 kts | 223° |
| 2026-05-06 08:39 | 29.18605 | 90.93251 | 24176 ft | 295 kts | 233° |
| 2026-05-06 08:39 | 29.17484 | 90.91302 | 24610 ft | 294 kts | 243° |
| 2026-05-06 08:39 | 29.16714 | 90.89130 | 24976 ft | 296 kts | 253° |
| 2026-05-06 08:40 | 29.16331 | 90.86823 | 25372 ft | 297 kts | 263° |
| 2026-05-06 08:40 | 29.16354 | 90.84444 | 25795 ft | 302 kts | 274° |
| 2026-05-06 08:40 | 29.16800 | 90.82076 | 26204 ft | 308 kts | 282° |
| 2026-05-06 08:40 | 29.17414 | 90.79685 | 26340 ft | 319 kts | 282° |
| 2026-05-06 08:41 | 29.18036 | 90.77249 | 26453 ft | 327 kts | 282° |
| 2026-05-06 08:41 | 29.18682 | 90.74717 | 26625 ft | 336 kts | 282° |
| 2026-05-06 08:41 | 29.19340 | 90.72125 | 26745 ft | 343 kts | 282° |
| 2026-05-06 08:41 | 29.20015 | 90.69463 | 26863 ft | 352 kts | 282° |
| 2026-05-06 08:42 | 29.20707 | 90.66732 | 26990 ft | 362 kts | 282° |
| 2026-05-06 08:42 | 29.21413 | 90.63937 | 27115 ft | 370 kts | 282° |
| 2026-05-06 08:42 | 29.22137 | 90.61077 | 27291 ft | 378 kts | 282° |
| 2026-05-06 08:42 | 29.22881 | 90.58154 | 27405 ft | 387 kts | 282° |
| 2026-05-06 08:43 | 29.23640 | 90.55172 | 27526 ft | 394 kts | 282° |
| 2026-05-06 08:43 | 29.24412 | 90.52131 | 27660 ft | 401 kts | 282° |
| 2026-05-06 08:43 | 29.25195 | 90.49032 | 27801 ft | 408 kts | 283° |
| 2026-05-06 08:43 | 29.26016 | 90.45891 | 27932 ft | 416 kts | 285° |
| 2026-05-06 08:44 | 29.27077 | 90.42773 | 28093 ft | 425 kts | 290° |
| 2026-05-06 08:44 | 29.28403 | 90.39711 | 28227 ft | 434 kts | 295° |
| 2026-05-06 08:44 | 29.29981 | 90.36719 | 28388 ft | 442 kts | 297° |
| 2026-05-06 08:44 | 29.31420 | 90.33620 | 28615 ft | 440 kts | 288° |
| 2026-05-06 08:45 | 29.32355 | 90.30309 | 28991 ft | 435 kts | 279° |
| 2026-05-06 08:45 | 29.32763 | 90.26904 | 29409 ft | 429 kts | 269° |
| 2026-05-06 08:45 | 29.32746 | 90.23493 | 29809 ft | 427 kts | 266° |
| 2026-05-06 08:45 | 29.32687 | 90.20091 | 30134 ft | 428 kts | 266° |
| 2026-05-06 08:46 | 29.32666 | 90.16680 | 30407 ft | 429 kts | 268° |
| 2026-05-06 08:46 | 29.32741 | 90.13272 | 30788 ft | 427 kts | 270° |
| 2026-05-06 08:46 | 29.32876 | 90.09882 | 31193 ft | 424 kts | 270° |
| 2026-05-06 08:46 | 29.33033 | 90.06515 | 31550 ft | 422 kts | 270° |
| 2026-05-06 08:47 | 29.33187 | 90.03162 | 31850 ft | 420 kts | 270° |
| 2026-05-06 08:47 | 29.33447 | 89.96432 | 31932 ft | 426 kts | 270° |
| 2026-05-06 08:48 | 29.33658 | 89.89638 | 31923 ft | 428 kts | 270° |
| 2026-05-06 08:48 | 29.33864 | 89.82824 | 31922 ft | 427 kts | 269° |
| 2026-05-06 08:49 | 29.34075 | 89.76016 | 31930 ft | 428 kts | 269° |
| 2026-05-06 08:49 | 29.34282 | 89.69204 | 31897 ft | 427 kts | 270° |
| 2026-05-06 08:50 | 29.34490 | 89.62395 | 31891 ft | 427 kts | 269° |
| 2026-05-06 08:50 | 29.34692 | 89.55588 | 31892 ft | 427 kts | 269° |
| 2026-05-06 08:51 | 29.34893 | 89.48780 | 31859 ft | 427 kts | 269° |
| 2026-05-06 08:51 | 29.35082 | 89.41972 | 31860 ft | 427 kts | 269° |
| 2026-05-06 08:52 | 29.35268 | 89.35162 | 31833 ft | 427 kts | 269° |
| 2026-05-06 08:52 | 29.34562 | 89.28474 | 31833 ft | 424 kts | 251° |
| 2026-05-06 08:53 | 29.31751 | 89.22577 | 31823 ft | 426 kts | 232° |
| 2026-05-06 08:53 | 29.27730 | 89.17568 | 31812 ft | 428 kts | 229° |
| 2026-05-06 08:54 | 29.23665 | 89.12569 | 31808 ft | 429 kts | 229° |
| 2026-05-06 08:54 | 29.19610 | 89.07579 | 31827 ft | 427 kts | 229° |
| 2026-05-06 08:55 | 29.15564 | 89.02600 | 31836 ft | 427 kts | 229° |
| 2026-05-06 08:55 | 29.11521 | 88.97634 | 31841 ft | 426 kts | 229° |
| 2026-05-06 08:56 | 29.07480 | 88.92681 | 31852 ft | 426 kts | 229° |
| 2026-05-06 08:56 | 29.03437 | 88.87724 | 31853 ft | 426 kts | 229° |
| 2026-05-06 08:57 | 28.99394 | 88.82784 | 31886 ft | 426 kts | 229° |
| 2026-05-06 08:57 | 28.95347 | 88.77836 | 31874 ft | 426 kts | 229° |
| 2026-05-06 08:58 | 28.91309 | 88.72900 | 31877 ft | 425 kts | 229° |
| 2026-05-06 08:58 | 28.87302 | 88.68024 | 31926 ft | 423 kts | 229° |
| 2026-05-06 08:59 | 28.83271 | 88.63125 | 31932 ft | 423 kts | 229° |
| 2026-05-06 08:59 | 28.79243 | 88.58221 | 31949 ft | 423 kts | 229° |
| 2026-05-06 09:00 | 28.75217 | 88.53332 | 31985 ft | 423 kts | 229° |
| 2026-05-06 09:00 | 28.71192 | 88.48441 | 31984 ft | 422 kts | 229° |
| 2026-05-06 09:01 | 28.67166 | 88.43568 | 32009 ft | 422 kts | 229° |
| 2026-05-06 09:01 | 28.63137 | 88.38707 | 32014 ft | 421 kts | 229° |
| 2026-05-06 09:02 | 28.59124 | 88.33861 | 32012 ft | 420 kts | 229° |
| 2026-05-06 09:02 | 28.55121 | 88.29030 | 32013 ft | 419 kts | 229° |
| 2026-05-06 09:03 | 28.51126 | 88.24205 | 32028 ft | 419 kts | 229° |
| 2026-05-06 09:03 | 28.47156 | 88.19416 | 32022 ft | 418 kts | 229° |
| 2026-05-06 09:04 | 28.43161 | 88.14606 | 32028 ft | 419 kts | 229° |
| 2026-05-06 09:04 | 28.39157 | 88.09800 | 32058 ft | 419 kts | 229° |
| 2026-05-06 09:05 | 28.35156 | 88.04996 | 32045 ft | 419 kts | 229° |
| 2026-05-06 09:05 | 28.31144 | 88.00183 | 32061 ft | 420 kts | 229° |
| 2026-05-06 09:06 | 28.27120 | 87.95372 | 32125 ft | 420 kts | 229° |
| 2026-05-06 09:06 | 28.23095 | 87.90559 | 32122 ft | 420 kts | 229° |
| 2026-05-06 09:07 | 28.19069 | 87.85752 | 32154 ft | 421 kts | 229° |
| 2026-05-06 09:07 | 28.15036 | 87.80948 | 32151 ft | 421 kts | 229° |
| 2026-05-06 09:08 | 28.11000 | 87.76144 | 32154 ft | 420 kts | 229° |
| 2026-05-06 09:08 | 28.06965 | 87.71348 | 32157 ft | 420 kts | 229° |
| 2026-05-06 09:09 | 28.02938 | 87.66555 | 32239 ft | 419 kts | 228° |
| 2026-05-06 09:09 | 27.98919 | 87.61782 | 32244 ft | 419 kts | 228° |
| 2026-05-06 09:10 | 27.94901 | 87.57019 | 32248 ft | 418 kts | 228° |
| 2026-05-06 09:10 | 27.90884 | 87.52264 | 32281 ft | 417 kts | 228° |
| 2026-05-06 09:11 | 27.86878 | 87.47529 | 32286 ft | 417 kts | 228° |
| 2026-05-06 09:11 | 27.82504 | 87.43217 | 32280 ft | 422 kts | 214° |
| 2026-05-06 09:12 | 27.77119 | 87.40466 | 32263 ft | 426 kts | 207° |
| 2026-05-06 09:12 | 27.71628 | 87.37933 | 32269 ft | 427 kts | 206° |
| 2026-05-06 09:13 | 27.66140 | 87.35398 | 32246 ft | 425 kts | 206° |
| 2026-05-06 09:13 | 27.60660 | 87.32872 | 32255 ft | 426 kts | 206° |
| 2026-05-06 09:14 | 27.55198 | 87.30357 | 32223 ft | 424 kts | 207° |
| 2026-05-06 09:14 | 27.49739 | 87.27841 | 32208 ft | 424 kts | 206° |
| 2026-05-06 09:15 | 27.45186 | 87.25747 | 32220 ft | 425 kts | 206° |
| 2026-05-06 09:15 | 27.38790 | 87.22900 | 32152 ft | 429 kts | 200° |
| 2026-05-06 09:15 | 27.35806 | 87.22425 | 32158 ft | 441 kts | 185° |
| 2026-05-06 09:16 | 27.32738 | 87.22954 | 32156 ft | 455 kts | 168° |
| 2026-05-06 09:16 | 27.29857 | 87.24553 | 32097 ft | 473 kts | 151° |
| 2026-05-06 09:16 | 27.28171 | 87.26219 | 32098 ft | 485 kts | 138° |
| 2026-05-06 09:16 | 27.26189 | 87.29347 | 32102 ft | 496 kts | 128° |
| 2026-05-06 09:17 | 27.23763 | 87.33708 | 32085 ft | 498 kts | 127° |
| 2026-05-06 09:17 | 27.20723 | 87.39269 | 32065 ft | 501 kts | 127° |
| 2026-05-06 09:18 | 27.16485 | 87.47031 | 32082 ft | 502 kts | 127° |
| 2026-05-06 09:18 | 27.13434 | 87.52572 | 32064 ft | 503 kts | 128° |
| 2026-05-06 09:19 | 27.09726 | 87.59241 | 32090 ft | 504 kts | 128° |
| 2026-05-06 09:19 | 27.05993 | 87.65930 | 32056 ft | 507 kts | 128° |
| 2026-05-06 09:20 | 27.02264 | 87.72640 | 31997 ft | 506 kts | 128° |
| 2026-05-06 09:20 | 27.00404 | 87.75987 | 31679 ft | 505 kts | 128° |
| 2026-05-06 09:20 | 26.98546 | 87.79327 | 31397 ft | 504 kts | 128° |
| 2026-05-06 09:20 | 26.96691 | 87.82657 | 31064 ft | 503 kts | 128° |
| 2026-05-06 09:21 | 26.94838 | 87.85979 | 30782 ft | 503 kts | 128° |
| 2026-05-06 09:21 | 26.92987 | 87.89298 | 30510 ft | 502 kts | 127° |
| 2026-05-06 09:21 | 26.91137 | 87.92615 | 30239 ft | 501 kts | 127° |
| 2026-05-06 09:21 | 26.89285 | 87.95926 | 29959 ft | 502 kts | 127° |
| 2026-05-06 09:22 | 26.87434 | 87.99234 | 29641 ft | 501 kts | 127° |
| 2026-05-06 09:22 | 26.85585 | 88.02540 | 29252 ft | 501 kts | 127° |
| 2026-05-06 09:22 | 26.83735 | 88.05849 | 28928 ft | 502 kts | 127° |
| 2026-05-06 09:22 | 26.81880 | 88.09167 | 28607 ft | 503 kts | 127° |
| 2026-05-06 09:23 | 26.80016 | 88.12495 | 28290 ft | 506 kts | 127° |
| 2026-05-06 09:23 | 26.78140 | 88.15833 | 27988 ft | 507 kts | 127° |
| 2026-05-06 09:23 | 26.76259 | 88.19172 | 27682 ft | 508 kts | 127° |
| 2026-05-06 09:23 | 26.74385 | 88.22522 | 27382 ft | 508 kts | 126° |
| 2026-05-06 09:24 | 26.72585 | 88.25934 | 27040 ft | 512 kts | 120° |
| 2026-05-06 09:24 | 26.71309 | 88.29677 | 26690 ft | 519 kts | 108° |
| 2026-05-06 09:24 | 26.70712 | 88.33671 | 26402 ft | 525 kts | 96° |
| 2026-05-06 09:24 | 26.70823 | 88.37709 | 26112 ft | 529 kts | 84° |
| 2026-05-06 09:25 | 26.71646 | 88.41716 | 25835 ft | 530 kts | 72° |
| 2026-05-06 09:25 | 26.72843 | 88.45620 | 25608 ft | 531 kts | 71° |
| 2026-05-06 09:25 | 26.74048 | 88.49527 | 25357 ft | 531 kts | 71° |
| 2026-05-06 09:25 | 26.75252 | 88.53428 | 25077 ft | 530 kts | 71° |
| 2026-05-06 09:26 | 26.76454 | 88.57329 | 24809 ft | 530 kts | 71° |
| 2026-05-06 09:26 | 26.77654 | 88.61233 | 24540 ft | 530 kts | 71° |
| 2026-05-06 09:26 | 26.78851 | 88.65134 | 24272 ft | 530 kts | 71° |
| 2026-05-06 09:26 | 26.80044 | 88.69031 | 24013 ft | 529 kts | 71° |
| 2026-05-06 09:27 | 26.81231 | 88.72919 | 23748 ft | 526 kts | 71° |
| 2026-05-06 09:27 | 26.82408 | 88.76786 | 23468 ft | 524 kts | 71° |
| 2026-05-06 09:27 | 26.83581 | 88.80637 | 23113 ft | 521 kts | 71° |
| 2026-05-06 09:27 | 26.84746 | 88.84462 | 22748 ft | 518 kts | 71° |
| 2026-05-06 09:28 | 26.85903 | 88.88263 | 22389 ft | 513 kts | 71° |
| 2026-05-06 09:28 | 26.87048 | 88.92032 | 22087 ft | 511 kts | 71° |
| 2026-05-06 09:28 | 26.88190 | 88.95790 | 21732 ft | 509 kts | 71° |
| 2026-05-06 09:28 | 26.89329 | 88.99531 | 21396 ft | 506 kts | 71° |
| 2026-05-06 09:29 | 26.90460 | 89.03249 | 21042 ft | 503 kts | 71° |
| 2026-05-06 09:29 | 26.91581 | 89.06943 | 20700 ft | 500 kts | 71° |
| 2026-05-06 09:29 | 26.92691 | 89.10619 | 20370 ft | 497 kts | 71° |
| 2026-05-06 09:29 | 26.93792 | 89.14276 | 20042 ft | 494 kts | 71° |
| 2026-05-06 09:30 | 26.94885 | 89.17909 | 19702 ft | 491 kts | 71° |
| 2026-05-06 09:30 | 26.95971 | 89.21524 | 19373 ft | 487 kts | 71° |
| 2026-05-06 09:30 | 26.97048 | 89.25109 | 19056 ft | 484 kts | 71° |
| 2026-05-06 09:30 | 26.98122 | 89.28677 | 18726 ft | 483 kts | 71° |
| 2026-05-06 09:31 | 26.99192 | 89.32234 | 18445 ft | 480 kts | 71° |
| 2026-05-06 09:31 | 27.00257 | 89.35773 | 18122 ft | 478 kts | 71° |
| 2026-05-06 09:31 | 27.01313 | 89.39291 | 17731 ft | 473 kts | 71° |
| 2026-05-06 09:31 | 27.02426 | 89.42703 | 17371 ft | 459 kts | 64° |
| 2026-05-06 09:32 | 27.04071 | 89.45685 | 17014 ft | 440 kts | 49° |
| 2026-05-06 09:32 | 27.06140 | 89.47997 | 16679 ft | 413 kts | 35° |
| 2026-05-06 09:32 | 27.08518 | 89.49678 | 16396 ft | 385 kts | 22° |
| 2026-05-06 09:32 | 27.10890 | 89.50664 | 16354 ft | 353 kts | 10° |
| 2026-05-06 09:33 | 27.13240 | 89.51120 | 16395 ft | 324 kts | 360° |
| 2026-05-06 09:33 | 27.15370 | 89.51131 | 16407 ft | 299 kts | 354° |
| 2026-05-06 09:33 | 27.17397 | 89.51047 | 16432 ft | 282 kts | 354° |
| 2026-05-06 09:33 | 27.19308 | 89.50970 | 16204 ft | 271 kts | 354° |
| 2026-05-06 09:34 | 27.21178 | 89.50890 | 15809 ft | 265 kts | 354° |
| 2026-05-06 09:34 | 27.22970 | 89.50815 | 15447 ft | 250 kts | 354° |
| 2026-05-06 09:34 | 27.24678 | 89.50742 | 15071 ft | 241 kts | 354° |
| 2026-05-06 09:34 | 27.26323 | 89.50672 | 14705 ft | 234 kts | 355° |
| 2026-05-06 09:35 | 27.27927 | 89.50602 | 14346 ft | 228 kts | 354° |
| 2026-05-06 09:35 | 27.29503 | 89.50536 | 13988 ft | 225 kts | 355° |
| 2026-05-06 09:35 | 27.31043 | 89.50412 | 13607 ft | 218 kts | 343° |
| 2026-05-06 09:35 | 27.32417 | 89.49773 | 13207 ft | 212 kts | 329° |
| 2026-05-06 09:36 | 27.33709 | 89.49000 | 12822 ft | 210 kts | 328° |
| 2026-05-06 09:36 | 27.34993 | 89.48207 | 12441 ft | 210 kts | 326° |
| 2026-05-06 09:36 | 27.36256 | 89.47438 | 12155 ft | 201 kts | 329° |
| 2026-05-06 09:36 | 27.37423 | 89.46610 | 11686 ft | 200 kts | 317° |
| 2026-05-06 09:37 | 27.38322 | 89.45421 | 11270 ft | 197 kts | 299° |
| 2026-05-06 09:37 | 27.38986 | 89.44119 | 11011 ft | 187 kts | 297° |
| 2026-05-06 09:37 | 27.39603 | 89.42863 | 10786 ft | 179 kts | 297° |
| 2026-05-06 09:37 | 27.40165 | 89.41697 | 10653 ft | 161 kts | 297° |
| 2026-05-06 09:38 | 27.40675 | 89.40613 | 10449 ft | 152 kts | 298° |